Latest Weather Forecast - Thursday 16th May 2019 (6am)

Forecast Period:  6:00 am - 16th May, 2019 to 12:00 Noon - 16th May, 2019  
Synopsis: The Atlantic High Pressure System is the dominant feature
Forecast:

Fair to partly cloudy with a few isolated showers

Weather 
Advisory/Warning:
None
Winds: E -ENE at 15 to 35 km/h (9 to 22 mph)
Sea Conditions:  Slight to moderate in open water; with swells 1.0 m to 2.0 m
 Marine Advisory/Warning: None
Upcoming Tides:
High: 3:48 pm      
Low: 8:58 am  

Aviation WX

[Source: ADDS]
METAR
TVSA 271200Z 08006KT 9999 BKN020 29/24 Q1014 NOSIG =
TVSA 271125Z 2712/2812 11006KT 9999 SCT018
TAF
TVSA 271125Z 2712/2812 11006KT 9999 SCT018 =
SR / SS: 09:36 / 22:26 UTC (Sunrise Sunset 2019-05-27)